createdAt,value
2022-11-20T00:09:29.530Z,9.5
2022-11-20T00:19:29.840Z,9.5
2022-11-20T00:29:29.529Z,8.5
2022-11-20T00:39:29.680Z,9
2022-11-20T00:49:29.506Z,8.5
2022-11-20T00:59:29.629Z,8.5
2022-11-20T01:09:29.722Z,8.5
2022-11-20T01:19:29.690Z,8.5
2022-11-20T01:29:29.771Z,8.5
2022-11-20T01:39:29.597Z,8.5
2022-11-20T01:49:29.697Z,8.5
2022-11-20T01:59:29.606Z,8.5
2022-11-20T02:09:29.703Z,8.5
2022-11-20T02:19:29.598Z,8.5
2022-11-20T02:29:29.695Z,8.5
2022-11-20T02:39:29.788Z,8.5
2022-11-20T02:49:29.686Z,8.5
2022-11-20T02:59:29.805Z,8.5
2022-11-20T03:09:29.687Z,8.5
2022-11-20T03:19:29.777Z,8.5
2022-11-20T03:29:29.662Z,8.5
2022-11-20T03:39:29.783Z,8.5
2022-11-20T03:49:29.894Z,9
2022-11-20T03:59:29.780Z,8.5
2022-11-20T04:09:29.875Z,9
2022-11-20T04:19:29.761Z,9
2022-11-20T04:29:29.872Z,9
2022-11-20T04:39:29.765Z,9
2022-11-20T04:49:29.918Z,9
2022-11-20T04:59:29.753Z,10
2022-11-20T05:09:29.852Z,10
2022-11-20T05:19:29.944Z,10
2022-11-20T05:29:29.852Z,10
2022-11-20T05:39:29.945Z,10
2022-11-20T05:49:29.856Z,10
2022-11-20T05:59:29.948Z,11
2022-11-20T06:09:29.837Z,11
2022-11-20T06:19:29.949Z,11
2022-11-20T06:29:33.694Z,11
2022-11-20T06:39:29.927Z,11
2022-11-20T06:49:30.019Z,11
2022-11-20T06:59:29.944Z,11
2022-11-20T07:09:30.031Z,11
2022-11-20T07:19:29.917Z,11
2022-11-20T07:29:30.022Z,11
2022-11-20T07:39:29.922Z,11
2022-11-20T07:49:30.020Z,10.5
2022-11-20T07:59:30.109Z,10.5
2022-11-20T08:09:30.031Z,10.5
2022-11-20T08:19:30.129Z,11
2022-11-20T08:29:30.012Z,11
2022-11-20T08:39:30.106Z,11
2022-11-20T08:49:30.006Z,11
2022-11-20T08:59:58.577Z,11
2022-11-20T09:09:30.004Z,11
2022-11-20T09:19:37.206Z,11
2022-11-20T09:29:30.207Z,12
2022-11-20T09:39:30.127Z,12
2022-11-20T09:49:32.474Z,12
2022-11-20T09:59:30.130Z,12
2022-11-20T10:09:30.207Z,12
2022-11-20T10:19:30.119Z,12
2022-11-20T10:29:30.192Z,13
2022-11-20T10:39:30.101Z,13
2022-11-20T10:49:30.187Z,13
2022-11-20T10:59:30.291Z,13
2022-11-20T11:09:30.166Z,14
2022-11-20T11:19:30.267Z,14
2022-11-20T11:29:30.183Z,13.5
2022-11-20T11:39:30.261Z,14
2022-11-20T11:49:30.172Z,14
2022-11-20T11:59:30.275Z,14.5
2022-11-20T12:09:30.203Z,14.5
2022-11-20T12:19:30.553Z,13.5
2022-11-20T12:29:30.222Z,13.5
2022-11-20T12:39:30.320Z,13.5
2022-11-20T12:49:30.241Z,13
2022-11-20T12:59:30.338Z,12.5
2022-11-20T13:09:30.437Z,12.5
2022-11-20T13:19:30.348Z,12.5
2022-11-20T13:29:30.440Z,13
2022-11-20T13:39:30.329Z,12.5
2022-11-20T13:49:30.466Z,12.5
2022-11-20T13:59:30.328Z,12.5
2022-11-20T14:09:30.412Z,12.5
2022-11-20T14:19:30.315Z,11.5
2022-11-20T14:29:30.403Z,10.5
2022-11-20T14:39:30.512Z,11
2022-11-20T14:49:30.413Z,12
2022-11-20T14:59:30.505Z,11.5
2022-11-20T15:09:30.423Z,11
2022-11-20T15:19:30.518Z,11
2022-11-20T15:29:30.406Z,11.5
2022-11-20T15:39:30.523Z,11.5
2022-11-20T15:49:30.414Z,11
2022-11-20T15:59:30.501Z,11
2022-11-20T16:09:30.603Z,11
2022-11-20T16:19:30.592Z,11
2022-11-20T16:29:30.488Z,10.5
2022-11-20T16:39:30.728Z,10.5
2022-11-20T16:49:30.499Z,10.5
2022-11-20T16:59:30.593Z,10.5
2022-11-20T17:09:30.548Z,10.5
2022-11-20T17:19:30.711Z,10.5
2022-11-20T17:29:30.673Z,10.5
2022-11-20T17:39:30.628Z,10.5
2022-11-20T17:49:30.752Z,10.5
2022-11-20T17:59:30.737Z,10.5
2022-11-20T18:09:30.706Z,10.5
2022-11-20T18:19:32.581Z,10.5
2022-11-20T18:29:31.120Z,9.5
2022-11-20T18:39:30.751Z,10
2022-11-20T18:49:30.672Z,10
2022-11-20T18:59:31.160Z,10
2022-11-20T19:09:30.648Z,10
2022-11-20T19:19:30.764Z,10
2022-11-20T19:29:31.061Z,10
2022-11-20T19:39:30.761Z,10
2022-11-20T19:49:30.659Z,11
2022-11-20T19:59:31.252Z,10.5
2022-11-20T20:09:30.852Z,10.5
2022-11-20T20:19:30.780Z,10.5
2022-11-20T20:29:30.847Z,10.5
2022-11-20T20:39:30.743Z,10.5
2022-11-20T20:49:30.858Z,10.5
2022-11-20T20:59:30.752Z,10.5
2022-11-20T21:09:30.837Z,10.5
2022-11-20T21:19:30.731Z,10.5
2022-11-20T21:29:30.826Z,10.5
2022-11-20T21:39:30.746Z,10.5
2022-11-20T21:49:30.848Z,10.5
2022-11-20T21:59:30.945Z,10.5
2022-11-20T22:09:30.864Z,10.5
2022-11-20T22:19:30.932Z,10.5
2022-11-20T22:29:30.830Z,10.5
2022-11-20T22:39:30.965Z,10.5
2022-11-20T22:49:30.900Z,10
2022-11-20T22:59:30.974Z,10
2022-11-20T23:09:30.872Z,10
2022-11-20T23:19:30.960Z,9.5
2022-11-20T23:29:30.904Z,10
2022-11-20T23:39:30.961Z,10
2022-11-20T23:49:31.084Z,9.5
2022-11-20T23:59:30.966Z,9.5
